sensor_id;sensor_type;location;lat;lon;timestamp;P1;durP1;ratioP1;P2;durP2;ratioP2
1591;SDS011;789;51.612;7.510;2023-07-20T00:01:47;8.47;;;6.53;;
1591;SDS011;789;51.612;7.510;2023-07-20T00:04:14;7.57;;;6.87;;
1591;SDS011;789;51.612;7.510;2023-07-20T00:06:40;8.00;;;7.20;;
1591;SDS011;789;51.612;7.510;2023-07-20T00:09:07;7.97;;;7.27;;
1591;SDS011;789;51.612;7.510;2023-07-20T00:11:35;9.40;;;7.80;;
1591;SDS011;789;51.612;7.510;2023-07-20T00:14:02;9.43;;;7.50;;
1591;SDS011;789;51.612;7.510;2023-07-20T00:16:31;8.00;;;7.20;;
1591;SDS011;789;51.612;7.510;2023-07-20T00:18:58;11.13;;;8.20;;
1591;SDS011;789;51.612;7.510;2023-07-20T00:21:24;8.10;;;7.30;;
1591;SDS011;789;51.612;7.510;2023-07-20T00:23:51;9.33;;;6.90;;
1591;SDS011;789;51.612;7.510;2023-07-20T00:26:18;9.07;;;7.40;;
1591;SDS011;789;51.612;7.510;2023-07-20T00:28:44;7.93;;;7.17;;
1591;SDS011;789;51.612;7.510;2023-07-20T00:31:11;8.20;;;7.43;;
1591;SDS011;789;51.612;7.510;2023-07-20T00:33:39;10.37;;;7.90;;
1591;SDS011;789;51.612;7.510;2023-07-20T00:36:06;7.93;;;6.90;;
1591;SDS011;789;51.612;7.510;2023-07-20T00:38:33;9.03;;;7.70;;
1591;SDS011;789;51.612;7.510;2023-07-20T00:40:59;10.43;;;7.87;;
1591;SDS011;789;51.612;7.510;2023-07-20T00:43:26;11.60;;;7.77;;
1591;SDS011;789;51.612;7.510;2023-07-20T00:45:53;7.13;;;6.43;;
1591;SDS011;789;51.612;7.510;2023-07-20T00:48:20;7.47;;;6.87;;
1591;SDS011;789;51.612;7.510;2023-07-20T00:50:48;8.50;;;7.70;;
1591;SDS011;789;51.612;7.510;2023-07-20T00:53:15;8.70;;;7.70;;
1591;SDS011;789;51.612;7.510;2023-07-20T00:55:42;8.67;;;7.50;;
1591;SDS011;789;51.612;7.510;2023-07-20T00:58:09;8.53;;;7.20;;
1591;SDS011;789;51.612;7.510;2023-07-20T01:00:36;9.93;;;7.13;;
1591;SDS011;789;51.612;7.510;2023-07-20T01:03:03;8.17;;;7.30;;
1591;SDS011;789;51.612;7.510;2023-07-20T01:05:32;8.67;;;7.87;;
1591;SDS011;789;51.612;7.510;2023-07-20T01:08:15;8.70;;;7.80;;
1591;SDS011;789;51.612;7.510;2023-07-20T01:10:51;8.70;;;7.20;;
1591;SDS011;789;51.612;7.510;2023-07-20T01:13:23;9.20;;;7.73;;
1591;SDS011;789;51.612;7.510;2023-07-20T01:15:53;10.57;;;7.30;;
1591;SDS011;789;51.612;7.510;2023-07-20T01:18:24;9.23;;;7.47;;
1591;SDS011;789;51.612;7.510;2023-07-20T01:20:51;8.33;;;7.00;;
1591;SDS011;789;51.612;7.510;2023-07-20T01:26:21;7.70;;;7.00;;
1591;SDS011;789;51.612;7.510;2023-07-20T01:29:08;8.07;;;6.90;;
1591;SDS011;789;51.612;7.510;2023-07-20T01:31:45;7.63;;;6.87;;
1591;SDS011;789;51.612;7.510;2023-07-20T01:34:17;7.40;;;6.70;;
1591;SDS011;789;51.612;7.510;2023-07-20T01:36:44;9.97;;;6.80;;
1591;SDS011;789;51.612;7.510;2023-07-20T01:39:12;10.13;;;7.33;;
1591;SDS011;789;51.612;7.510;2023-07-20T01:41:39;8.10;;;6.50;;
1591;SDS011;789;51.612;7.510;2023-07-20T01:44:06;8.33;;;6.73;;
1591;SDS011;789;51.612;7.510;2023-07-20T01:46:34;7.90;;;6.80;;
1591;SDS011;789;51.612;7.510;2023-07-20T01:49:02;8.00;;;7.20;;
1591;SDS011;789;51.612;7.510;2023-07-20T01:51:28;9.37;;;7.77;;
1591;SDS011;789;51.612;7.510;2023-07-20T01:53:55;8.47;;;7.60;;
1591;SDS011;789;51.612;7.510;2023-07-20T01:56:22;7.87;;;7.07;;
1591;SDS011;789;51.612;7.510;2023-07-20T01:58:49;9.00;;;8.10;;
1591;SDS011;789;51.612;7.510;2023-07-20T02:01:15;11.53;;;8.10;;
1591;SDS011;789;51.612;7.510;2023-07-20T02:03:42;10.10;;;8.30;;
1591;SDS011;789;51.612;7.510;2023-07-20T02:06:10;8.87;;;7.97;;
1591;SDS011;789;51.612;7.510;2023-07-20T02:08:37;9.60;;;8.60;;
1591;SDS011;789;51.612;7.510;2023-07-20T02:11:04;10.30;;;8.77;;
1591;SDS011;789;51.612;7.510;2023-07-20T02:13:30;13.10;;;8.60;;
1591;SDS011;789;51.612;7.510;2023-07-20T02:15:57;9.67;;;8.00;;
1591;SDS011;789;51.612;7.510;2023-07-20T02:18:23;9.03;;;7.60;;
1591;SDS011;789;51.612;7.510;2023-07-20T02:20:52;9.23;;;7.60;;
1591;SDS011;789;51.612;7.510;2023-07-20T02:23:20;8.10;;;7.30;;
1591;SDS011;789;51.612;7.510;2023-07-20T02:25:47;12.47;;;8.30;;
1591;SDS011;789;51.612;7.510;2023-07-20T02:28:13;8.87;;;8.00;;
1591;SDS011;789;51.612;7.510;2023-07-20T02:30:40;11.57;;;8.10;;
1591;SDS011;789;51.612;7.510;2023-07-20T02:33:07;9.73;;;8.00;;
1591;SDS011;789;51.612;7.510;2023-07-20T02:35:34;10.83;;;9.73;;
1591;SDS011;789;51.612;7.510;2023-07-20T02:38:05;10.40;;;9.50;;
1591;SDS011;789;51.612;7.510;2023-07-20T02:40:34;10.70;;;9.60;;
1591;SDS011;789;51.612;7.510;2023-07-20T02:43:00;11.10;;;10.10;;
1591;SDS011;789;51.612;7.510;2023-07-20T02:45:26;12.63;;;10.60;;
1591;SDS011;789;51.612;7.510;2023-07-20T02:47:53;15.17;;;12.30;;
1591;SDS011;789;51.612;7.510;2023-07-20T02:50:19;13.20;;;11.70;;
1591;SDS011;789;51.612;7.510;2023-07-20T02:52:46;13.57;;;11.77;;
1591;SDS011;789;51.612;7.510;2023-07-20T02:55:13;13.03;;;11.63;;
1591;SDS011;789;51.612;7.510;2023-07-20T02:57:41;13.87;;;12.27;;
1591;SDS011;789;51.612;7.510;2023-07-20T03:00:08;15.90;;;12.17;;
1591;SDS011;789;51.612;7.510;2023-07-20T03:02:36;14.53;;;13.10;;
1591;SDS011;789;51.612;7.510;2023-07-20T03:05:03;17.93;;;15.40;;
1591;SDS011;789;51.612;7.510;2023-07-20T03:07:32;15.93;;;14.30;;
1591;SDS011;789;51.612;7.510;2023-07-20T03:09:59;17.47;;;12.87;;
1591;SDS011;789;51.612;7.510;2023-07-20T03:12:25;14.50;;;13.00;;
1591;SDS011;789;51.612;7.510;2023-07-20T03:14:54;15.77;;;13.80;;
1591;SDS011;789;51.612;7.510;2023-07-20T03:17:22;18.57;;;15.00;;
1591;SDS011;789;51.612;7.510;2023-07-20T03:19:48;15.53;;;13.83;;
1591;SDS011;789;51.612;7.510;2023-07-20T03:22:15;18.73;;;14.10;;
1591;SDS011;789;51.612;7.510;2023-07-20T03:24:42;16.43;;;14.73;;
1591;SDS011;789;51.612;7.510;2023-07-20T03:27:08;14.23;;;12.93;;
1591;SDS011;789;51.612;7.510;2023-07-20T03:29:35;14.33;;;12.93;;
1591;SDS011;789;51.612;7.510;2023-07-20T03:32:03;16.23;;;14.53;;
1591;SDS011;789;51.612;7.510;2023-07-20T03:34:31;15.43;;;13.10;;
1591;SDS011;789;51.612;7.510;2023-07-20T03:36:57;15.10;;;13.50;;
1591;SDS011;789;51.612;7.510;2023-07-20T03:39:24;14.27;;;12.80;;
1591;SDS011;789;51.612;7.510;2023-07-20T03:41:51;15.83;;;13.40;;
1591;SDS011;789;51.612;7.510;2023-07-20T03:44:17;17.50;;;13.77;;
1591;SDS011;789;51.612;7.510;2023-07-20T03:46:44;15.60;;;14.13;;
1591;SDS011;789;51.612;7.510;2023-07-20T03:49:12;20.60;;;14.83;;
1591;SDS011;789;51.612;7.510;2023-07-20T03:51:40;20.70;;;18.50;;
1591;SDS011;789;51.612;7.510;2023-07-20T03:54:07;19.03;;;17.10;;
1591;SDS011;789;51.612;7.510;2023-07-20T03:56:34;18.47;;;16.50;;
1591;SDS011;789;51.612;7.510;2023-07-20T03:59:01;21.10;;;18.47;;
1591;SDS011;789;51.612;7.510;2023-07-20T04:01:27;20.63;;;18.43;;
1591;SDS011;789;51.612;7.510;2023-07-20T04:03:54;22.80;;;19.10;;
1591;SDS011;789;51.612;7.510;2023-07-20T04:06:22;21.67;;;19.40;;
1591;SDS011;789;51.612;7.510;2023-07-20T04:08:49;22.17;;;19.17;;
1591;SDS011;789;51.612;7.510;2023-07-20T04:11:16;21.80;;;19.70;;
1591;SDS011;789;51.612;7.510;2023-07-20T04:13:42;21.33;;;18.80;;
1591;SDS011;789;51.612;7.510;2023-07-20T04:16:09;21.00;;;19.00;;
1591;SDS011;789;51.612;7.510;2023-07-20T04:18:36;22.47;;;20.17;;
1591;SDS011;789;51.612;7.510;2023-07-20T04:21:02;23.00;;;20.47;;
1591;SDS011;789;51.612;7.510;2023-07-20T04:23:30;22.43;;;20.13;;
1591;SDS011;789;51.612;7.510;2023-07-20T04:25:57;23.87;;;21.37;;
1591;SDS011;789;51.612;7.510;2023-07-20T04:28:24;23.10;;;20.70;;
1591;SDS011;789;51.612;7.510;2023-07-20T04:30:50;24.23;;;19.67;;
1591;SDS011;789;51.612;7.510;2023-07-20T04:33:18;21.90;;;19.90;;
1591;SDS011;789;51.612;7.510;2023-07-20T04:35:46;22.23;;;19.93;;
1591;SDS011;789;51.612;7.510;2023-07-20T04:38:16;19.87;;;17.80;;
1591;SDS011;789;51.612;7.510;2023-07-20T04:40:45;19.30;;;17.33;;
1591;SDS011;789;51.612;7.510;2023-07-20T04:43:14;19.90;;;18.03;;
1591;SDS011;789;51.612;7.510;2023-07-20T04:45:40;20.23;;;18.00;;
1591;SDS011;789;51.612;7.510;2023-07-20T04:48:09;19.30;;;17.40;;
1591;SDS011;789;51.612;7.510;2023-07-20T04:50:37;18.63;;;16.73;;
1591;SDS011;789;51.612;7.510;2023-07-20T04:53:04;15.30;;;14.00;;
1591;SDS011;789;51.612;7.510;2023-07-20T04:55:31;16.80;;;15.20;;
1591;SDS011;789;51.612;7.510;2023-07-20T04:58:00;16.27;;;14.73;;
1591;SDS011;789;51.612;7.510;2023-07-20T05:00:27;17.40;;;14.17;;
1591;SDS011;789;51.612;7.510;2023-07-20T05:02:54;16.40;;;14.90;;
1591;SDS011;789;51.612;7.510;2023-07-20T05:05:20;14.90;;;13.60;;
1591;SDS011;789;51.612;7.510;2023-07-20T05:07:47;13.20;;;11.90;;
1591;SDS011;789;51.612;7.510;2023-07-20T05:10:14;12.70;;;11.60;;
1591;SDS011;789;51.612;7.510;2023-07-20T05:12:41;12.10;;;11.00;;
1591;SDS011;789;51.612;7.510;2023-07-20T05:15:09;10.67;;;9.87;;
1591;SDS011;789;51.612;7.510;2023-07-20T05:17:36;10.57;;;9.67;;
1591;SDS011;789;51.612;7.510;2023-07-20T05:20:04;10.63;;;9.73;;
1591;SDS011;789;51.612;7.510;2023-07-20T05:22:32;11.63;;;10.60;;
1591;SDS011;789;51.612;7.510;2023-07-20T05:24:59;11.67;;;10.67;;
1591;SDS011;789;51.612;7.510;2023-07-20T05:27:25;11.80;;;10.80;;
1591;SDS011;789;51.612;7.510;2023-07-20T05:29:52;10.97;;;10.07;;
1591;SDS011;789;51.612;7.510;2023-07-20T05:32:20;11.93;;;10.97;;
1591;SDS011;789;51.612;7.510;2023-07-20T05:34:47;11.90;;;10.90;;
1591;SDS011;789;51.612;7.510;2023-07-20T05:37:13;11.93;;;10.97;;
1591;SDS011;789;51.612;7.510;2023-07-20T05:39:40;11.50;;;10.50;;
1591;SDS011;789;51.612;7.510;2023-07-20T05:42:07;10.97;;;10.17;;
1591;SDS011;789;51.612;7.510;2023-07-20T05:44:34;10.93;;;10.03;;
1591;SDS011;789;51.612;7.510;2023-07-20T05:47:00;10.23;;;9.23;;
1591;SDS011;789;51.612;7.510;2023-07-20T05:49:29;10.40;;;9.47;;
1591;SDS011;789;51.612;7.510;2023-07-20T05:51:55;10.63;;;9.53;;
1591;SDS011;789;51.612;7.510;2023-07-20T05:54:23;10.30;;;9.40;;
1591;SDS011;789;51.612;7.510;2023-07-20T05:56:50;10.87;;;9.50;;
1591;SDS011;789;51.612;7.510;2023-07-20T05:59:17;10.00;;;9.20;;
1591;SDS011;789;51.612;7.510;2023-07-20T06:01:44;9.77;;;8.87;;
1591;SDS011;789;51.612;7.510;2023-07-20T06:04:12;10.10;;;9.13;;
1591;SDS011;789;51.612;7.510;2023-07-20T06:06:40;8.63;;;7.90;;
1591;SDS011;789;51.612;7.510;2023-07-20T06:09:06;8.53;;;7.83;;
1591;SDS011;789;51.612;7.510;2023-07-20T06:11:36;8.47;;;7.77;;
1591;SDS011;789;51.612;7.510;2023-07-20T06:14:03;8.33;;;7.70;;
1591;SDS011;789;51.612;7.510;2023-07-20T06:16:30;7.83;;;7.13;;
1591;SDS011;789;51.612;7.510;2023-07-20T06:21:27;7.60;;;6.90;;
1591;SDS011;789;51.612;7.510;2023-07-20T06:23:55;8.57;;;7.70;;
1591;SDS011;789;51.612;7.510;2023-07-20T06:26:23;7.90;;;7.17;;
1591;SDS011;789;51.612;7.510;2023-07-20T06:28:50;8.17;;;7.37;;
1591;SDS011;789;51.612;7.510;2023-07-20T06:31:17;7.63;;;6.93;;
1591;SDS011;789;51.612;7.510;2023-07-20T06:33:43;7.80;;;7.10;;
1591;SDS011;789;51.612;7.510;2023-07-20T06:36:10;12.13;;;7.60;;
1591;SDS011;789;51.612;7.510;2023-07-20T06:38:37;7.53;;;6.77;;
1591;SDS011;789;51.612;7.510;2023-07-20T06:41:05;9.30;;;6.83;;
1591;SDS011;789;51.612;7.510;2023-07-20T06:43:32;7.10;;;6.50;;
1591;SDS011;789;51.612;7.510;2023-07-20T06:46:00;6.33;;;5.73;;
1591;SDS011;789;51.612;7.510;2023-07-20T06:48:27;5.37;;;4.90;;
1591;SDS011;789;51.612;7.510;2023-07-20T06:50:53;6.00;;;5.40;;
1591;SDS011;789;51.612;7.510;2023-07-20T06:53:20;4.70;;;4.30;;
1591;SDS011;789;51.612;7.510;2023-07-20T06:55:47;4.90;;;4.40;;
1591;SDS011;789;51.612;7.510;2023-07-20T06:58:16;3.30;;;3.10;;
1591;SDS011;789;51.612;7.510;2023-07-20T07:00:44;2.93;;;2.73;;
1591;SDS011;789;51.612;7.510;2023-07-20T07:03:11;1.90;;;1.80;;
1591;SDS011;789;51.612;7.510;2023-07-20T07:05:37;2.80;;;1.80;;
1591;SDS011;789;51.612;7.510;2023-07-20T07:08:04;1.97;;;1.80;;
1591;SDS011;789;51.612;7.510;2023-07-20T07:10:32;2.10;;;1.83;;
1591;SDS011;789;51.612;7.510;2023-07-20T07:13:01;2.00;;;1.80;;
1591;SDS011;789;51.612;7.510;2023-07-20T07:15:29;2.27;;;1.70;;
1591;SDS011;789;51.612;7.510;2023-07-20T07:17:56;2.87;;;2.33;;
1591;SDS011;789;51.612;7.510;2023-07-20T07:20:24;4.20;;;2.80;;
1591;SDS011;789;51.612;7.510;2023-07-20T07:22:51;2.20;;;2.00;;
1591;SDS011;789;51.612;7.510;2023-07-20T07:25:18;2.30;;;2.10;;
1591;SDS011;789;51.612;7.510;2023-07-20T07:27:45;2.43;;;2.23;;
1591;SDS011;789;51.612;7.510;2023-07-20T07:30:12;3.17;;;2.27;;
1591;SDS011;789;51.612;7.510;2023-07-20T07:32:42;3.23;;;2.50;;
1591;SDS011;789;51.612;7.510;2023-07-20T07:35:09;5.00;;;2.67;;
1591;SDS011;789;51.612;7.510;2023-07-20T07:37:36;3.17;;;2.17;;
1591;SDS011;789;51.612;7.510;2023-07-20T07:40:05;2.97;;;2.60;;
1591;SDS011;789;51.612;7.510;2023-07-20T07:42:33;2.60;;;2.10;;
1591;SDS011;789;51.612;7.510;2023-07-20T07:45:00;3.53;;;1.90;;
1591;SDS011;789;51.612;7.510;2023-07-20T07:47:27;2.47;;;2.27;;
1591;SDS011;789;51.612;7.510;2023-07-20T07:49:55;2.70;;;2.50;;
1591;SDS011;789;51.612;7.510;2023-07-20T07:52:22;4.80;;;2.40;;
1591;SDS011;789;51.612;7.510;2023-07-20T07:54:49;3.50;;;3.20;;
1591;SDS011;789;51.612;7.510;2023-07-20T07:57:16;2.70;;;2.50;;
1591;SDS011;789;51.612;7.510;2023-07-20T07:59:45;5.07;;;3.00;;
1591;SDS011;789;51.612;7.510;2023-07-20T08:02:12;3.00;;;2.50;;
1591;SDS011;789;51.612;7.510;2023-07-20T08:04:39;7.03;;;3.20;;
1591;SDS011;789;51.612;7.510;2023-07-20T08:07:08;2.27;;;2.03;;
1591;SDS011;789;51.612;7.510;2023-07-20T08:09:34;3.30;;;2.17;;
1591;SDS011;789;51.612;7.510;2023-07-20T08:12:01;2.40;;;1.60;;
1591;SDS011;789;51.612;7.510;2023-07-20T08:14:29;3.63;;;1.50;;
1591;SDS011;789;51.612;7.510;2023-07-20T08:16:56;3.80;;;2.10;;
1591;SDS011;789;51.612;7.510;2023-07-20T08:19:23;2.90;;;1.50;;
1591;SDS011;789;51.612;7.510;2023-07-20T08:21:50;2.60;;;1.40;;
1591;SDS011;789;51.612;7.510;2023-07-20T08:24:18;5.53;;;1.60;;
1591;SDS011;789;51.612;7.510;2023-07-20T08:26:45;2.60;;;1.97;;
1591;SDS011;789;51.612;7.510;2023-07-20T08:29:11;3.20;;;1.60;;
1591;SDS011;789;51.612;7.510;2023-07-20T08:31:39;2.10;;;1.67;;
1591;SDS011;789;51.612;7.510;2023-07-20T08:34:05;1.40;;;1.30;;
1591;SDS011;789;51.612;7.510;2023-07-20T08:36:32;1.90;;;1.20;;
1591;SDS011;789;51.612;7.510;2023-07-20T08:38:59;1.63;;;1.10;;
1591;SDS011;789;51.612;7.510;2023-07-20T08:41:29;1.40;;;1.10;;
1591;SDS011;789;51.612;7.510;2023-07-20T08:43:56;1.40;;;1.00;;
1591;SDS011;789;51.612;7.510;2023-07-20T08:46:24;3.00;;;1.30;;
1591;SDS011;789;51.612;7.510;2023-07-20T08:48:53;5.33;;;1.83;;
1591;SDS011;789;51.612;7.510;2023-07-20T08:51:22;1.80;;;1.50;;
1591;SDS011;789;51.612;7.510;2023-07-20T08:53:50;2.63;;;1.93;;
1591;SDS011;789;51.612;7.510;2023-07-20T08:56:18;2.77;;;1.40;;
1591;SDS011;789;51.612;7.510;2023-07-20T08:58:48;2.97;;;1.53;;
1591;SDS011;789;51.612;7.510;2023-07-20T09:01:15;1.83;;;1.63;;
1591;SDS011;789;51.612;7.510;2023-07-20T09:03:43;4.43;;;2.00;;
1591;SDS011;789;51.612;7.510;2023-07-20T09:06:12;2.67;;;1.60;;
1591;SDS011;789;51.612;7.510;2023-07-20T09:08:38;2.27;;;1.33;;
1591;SDS011;789;51.612;7.510;2023-07-20T09:11:05;1.93;;;1.10;;
1591;SDS011;789;51.612;7.510;2023-07-20T09:13:32;1.20;;;0.90;;
1591;SDS011;789;51.612;7.510;2023-07-20T09:16:01;1.33;;;1.13;;
1591;SDS011;789;51.612;7.510;2023-07-20T09:18:30;1.30;;;0.90;;
1591;SDS011;789;51.612;7.510;2023-07-20T09:21:00;1.50;;;0.90;;
1591;SDS011;789;51.612;7.510;2023-07-20T09:23:32;1.47;;;0.93;;
1591;SDS011;789;51.612;7.510;2023-07-20T09:25:59;2.90;;;0.90;;
1591;SDS011;789;51.612;7.510;2023-07-20T09:28:26;2.33;;;1.10;;
1591;SDS011;789;51.612;7.510;2023-07-20T09:30:53;2.03;;;1.40;;
1591;SDS011;789;51.612;7.510;2023-07-20T09:33:23;1.63;;;1.17;;
1591;SDS011;789;51.612;7.510;2023-07-20T09:35:50;1.97;;;1.40;;
1591;SDS011;789;51.612;7.510;2023-07-20T09:38:17;2.60;;;1.37;;
1591;SDS011;789;51.612;7.510;2023-07-20T09:40:44;2.43;;;1.67;;
1591;SDS011;789;51.612;7.510;2023-07-20T09:43:11;1.37;;;1.27;;
1591;SDS011;789;51.612;7.510;2023-07-20T09:45:41;2.60;;;1.27;;
1591;SDS011;789;51.612;7.510;2023-07-20T09:48:09;3.27;;;1.37;;
1591;SDS011;789;51.612;7.510;2023-07-20T09:50:42;1.37;;;1.27;;
1591;SDS011;789;51.612;7.510;2023-07-20T09:53:15;1.47;;;1.37;;
1591;SDS011;789;51.612;7.510;2023-07-20T09:55:43;1.50;;;1.30;;
1591;SDS011;789;51.612;7.510;2023-07-20T09:58:11;1.27;;;1.17;;
1591;SDS011;789;51.612;7.510;2023-07-20T10:00:42;2.10;;;1.70;;
1591;SDS011;789;51.612;7.510;2023-07-20T10:03:11;1.37;;;1.27;;
1591;SDS011;789;51.612;7.510;2023-07-20T10:05:45;2.90;;;1.80;;
1591;SDS011;789;51.612;7.510;2023-07-20T10:08:14;1.83;;;1.60;;
1591;SDS011;789;51.612;7.510;2023-07-20T10:10:44;1.40;;;1.30;;
1591;SDS011;789;51.612;7.510;2023-07-20T10:13:14;2.17;;;1.40;;
1591;SDS011;789;51.612;7.510;2023-07-20T10:15:46;1.50;;;1.30;;
1591;SDS011;789;51.612;7.510;2023-07-20T10:18:17;1.93;;;1.50;;
1591;SDS011;789;51.612;7.510;2023-07-20T10:20:51;1.37;;;1.27;;
1591;SDS011;789;51.612;7.510;2023-07-20T10:23:21;2.03;;;1.00;;
1591;SDS011;789;51.612;7.510;2023-07-20T10:25:49;1.30;;;1.10;;
1591;SDS011;789;51.612;7.510;2023-07-20T10:28:16;1.50;;;1.30;;
1591;SDS011;789;51.612;7.510;2023-07-20T10:30:43;2.27;;;1.50;;
1591;SDS011;789;51.612;7.510;2023-07-20T10:33:11;1.30;;;1.20;;
1591;SDS011;789;51.612;7.510;2023-07-20T10:35:52;2.33;;;1.60;;
1591;SDS011;789;51.612;7.510;2023-07-20T10:38:20;5.30;;;1.50;;
1591;SDS011;789;51.612;7.510;2023-07-20T10:41:03;1.10;;;1.00;;
1591;SDS011;789;51.612;7.510;2023-07-20T10:43:30;1.33;;;0.80;;
1591;SDS011;789;51.612;7.510;2023-07-20T10:45:57;1.20;;;1.10;;
1591;SDS011;789;51.612;7.510;2023-07-20T10:48:24;2.00;;;1.90;;
1591;SDS011;789;51.612;7.510;2023-07-20T10:51:12;1.13;;;1.03;;
1591;SDS011;789;51.612;7.510;2023-07-20T10:53:40;2.20;;;1.40;;
1591;SDS011;789;51.612;7.510;2023-07-20T10:56:07;1.40;;;1.30;;
1591;SDS011;789;51.612;7.510;2023-07-20T10:58:38;1.13;;;1.03;;
1591;SDS011;789;51.612;7.510;2023-07-20T11:01:05;1.50;;;1.40;;
1591;SDS011;789;51.612;7.510;2023-07-20T11:03:33;2.17;;;1.17;;
1591;SDS011;789;51.612;7.510;2023-07-20T11:09:03;2.53;;;1.43;;
1591;SDS011;789;51.612;7.510;2023-07-20T11:11:36;1.30;;;1.00;;
1591;SDS011;789;51.612;7.510;2023-07-20T11:14:04;1.83;;;1.17;;
1591;SDS011;789;51.612;7.510;2023-07-20T11:16:36;1.00;;;0.90;;
1591;SDS011;789;51.612;7.510;2023-07-20T11:19:05;1.83;;;1.03;;
1591;SDS011;789;51.612;7.510;2023-07-20T11:21:41;1.30;;;1.10;;
1591;SDS011;789;51.612;7.510;2023-07-20T11:24:09;1.87;;;1.77;;
1591;SDS011;789;51.612;7.510;2023-07-20T11:26:43;2.60;;;1.53;;
1591;SDS011;789;51.612;7.510;2023-07-20T11:29:11;2.90;;;1.57;;
1591;SDS011;789;51.612;7.510;2023-07-20T11:31:38;1.40;;;1.30;;
1591;SDS011;789;51.612;7.510;2023-07-20T11:34:09;3.03;;;1.33;;
1591;SDS011;789;51.612;7.510;2023-07-20T11:36:42;1.67;;;1.40;;
1591;SDS011;789;51.612;7.510;2023-07-20T11:39:13;1.30;;;1.20;;
1591;SDS011;789;51.612;7.510;2023-07-20T11:41:43;1.97;;;1.60;;
1591;SDS011;789;51.612;7.510;2023-07-20T11:44:15;1.80;;;1.23;;
1591;SDS011;789;51.612;7.510;2023-07-20T11:46:43;1.10;;;0.90;;
1591;SDS011;789;51.612;7.510;2023-07-20T11:49:12;2.37;;;1.80;;
1591;SDS011;789;51.612;7.510;2023-07-20T11:51:39;2.73;;;1.13;;
1591;SDS011;789;51.612;7.510;2023-07-20T11:54:08;3.30;;;1.80;;
1591;SDS011;789;51.612;7.510;2023-07-20T11:56:36;1.70;;;1.60;;
1591;SDS011;789;51.612;7.510;2023-07-20T11:59:07;3.67;;;1.40;;
1591;SDS011;789;51.612;7.510;2023-07-20T12:01:35;1.50;;;1.33;;
1591;SDS011;789;51.612;7.510;2023-07-20T12:04:02;6.83;;;2.20;;
1591;SDS011;789;51.612;7.510;2023-07-20T12:06:29;1.80;;;1.30;;
1591;SDS011;789;51.612;7.510;2023-07-20T12:08:59;3.73;;;1.60;;
1591;SDS011;789;51.612;7.510;2023-07-20T12:11:32;2.40;;;1.50;;
1591;SDS011;789;51.612;7.510;2023-07-20T12:14:00;4.63;;;2.57;;
1591;SDS011;789;51.612;7.510;2023-07-20T12:16:27;5.20;;;3.33;;
1591;SDS011;789;51.612;7.510;2023-07-20T12:18:59;2.13;;;1.80;;
1591;SDS011;789;51.612;7.510;2023-07-20T12:21:26;2.30;;;1.47;;
1591;SDS011;789;51.612;7.510;2023-07-20T12:23:55;1.20;;;1.10;;
1591;SDS011;789;51.612;7.510;2023-07-20T12:26:24;2.30;;;1.17;;
1591;SDS011;789;51.612;7.510;2023-07-20T12:28:51;1.87;;;1.07;;
1591;SDS011;789;51.612;7.510;2023-07-20T12:31:18;4.93;;;1.77;;
1591;SDS011;789;51.612;7.510;2023-07-20T12:33:46;3.60;;;1.97;;
1591;SDS011;789;51.612;7.510;2023-07-20T12:36:15;1.90;;;1.50;;
1591;SDS011;789;51.612;7.510;2023-07-20T12:38:42;1.50;;;1.40;;
1591;SDS011;789;51.612;7.510;2023-07-20T12:41:09;1.77;;;1.60;;
1591;SDS011;789;51.612;7.510;2023-07-20T12:43:40;1.80;;;1.60;;
1591;SDS011;789;51.612;7.510;2023-07-20T12:46:07;1.77;;;1.57;;
1591;SDS011;789;51.612;7.510;2023-07-20T12:48:35;1.80;;;1.70;;
1591;SDS011;789;51.612;7.510;2023-07-20T12:51:02;3.23;;;1.97;;
1591;SDS011;789;51.612;7.510;2023-07-20T12:53:30;6.00;;;1.47;;
1591;SDS011;789;51.612;7.510;2023-07-20T12:55:57;2.50;;;1.47;;
1591;SDS011;789;51.612;7.510;2023-07-20T12:58:24;2.40;;;2.20;;
1591;SDS011;789;51.612;7.510;2023-07-20T13:00:53;6.10;;;1.90;;
1591;SDS011;789;51.612;7.510;2023-07-20T13:03:20;2.90;;;1.70;;
1591;SDS011;789;51.612;7.510;2023-07-20T13:05:47;1.93;;;1.53;;
1591;SDS011;789;51.612;7.510;2023-07-20T13:08:15;1.77;;;1.10;;
1591;SDS011;789;51.612;7.510;2023-07-20T13:10:43;1.40;;;1.30;;
1591;SDS011;789;51.612;7.510;2023-07-20T13:13:09;5.17;;;1.20;;
1591;SDS011;789;51.612;7.510;2023-07-20T13:15:40;1.73;;;1.17;;
1591;SDS011;789;51.612;7.510;2023-07-20T13:18:10;3.63;;;1.30;;
1591;SDS011;789;51.612;7.510;2023-07-20T13:20:37;2.70;;;1.40;;
1591;SDS011;789;51.612;7.510;2023-07-20T13:23:04;1.10;;;1.00;;
1591;SDS011;789;51.612;7.510;2023-07-20T13:25:31;2.27;;;1.27;;
1591;SDS011;789;51.612;7.510;2023-07-20T13:27:58;2.40;;;1.10;;
1591;SDS011;789;51.612;7.510;2023-07-20T13:30:24;1.77;;;1.67;;
1591;SDS011;789;51.612;7.510;2023-07-20T13:32:51;2.23;;;1.37;;
1591;SDS011;789;51.612;7.510;2023-07-20T13:35:21;1.60;;;1.07;;
1591;SDS011;789;51.612;7.510;2023-07-20T13:37:48;1.27;;;1.00;;
1591;SDS011;789;51.612;7.510;2023-07-20T13:40:15;5.70;;;5.20;;
1591;SDS011;789;51.612;7.510;2023-07-20T13:42:44;2.70;;;1.20;;
1591;SDS011;789;51.612;7.510;2023-07-20T13:45:11;1.30;;;1.20;;
1591;SDS011;789;51.612;7.510;2023-07-20T13:47:39;1.53;;;1.10;;
1591;SDS011;789;51.612;7.510;2023-07-20T13:50:06;1.17;;;1.07;;
1591;SDS011;789;51.612;7.510;2023-07-20T13:52:34;0.97;;;0.90;;
1591;SDS011;789;51.612;7.510;2023-07-20T13:55:02;1.10;;;1.00;;
1591;SDS011;789;51.612;7.510;2023-07-20T13:57:29;1.57;;;1.13;;
1591;SDS011;789;51.612;7.510;2023-07-20T13:59:56;1.90;;;1.10;;
1591;SDS011;789;51.612;7.510;2023-07-20T14:02:25;2.37;;;1.30;;
1591;SDS011;789;51.612;7.510;2023-07-20T14:04:51;2.00;;;1.17;;
1591;SDS011;789;51.612;7.510;2023-07-20T14:07:20;1.60;;;1.10;;
1591;SDS011;789;51.612;7.510;2023-07-20T14:09:49;2.73;;;1.40;;
1591;SDS011;789;51.612;7.510;2023-07-20T14:12:15;2.83;;;1.10;;
1591;SDS011;789;51.612;7.510;2023-07-20T14:14:42;1.83;;;1.10;;
1591;SDS011;789;51.612;7.510;2023-07-20T14:17:09;1.70;;;1.10;;
1591;SDS011;789;51.612;7.510;2023-07-20T14:19:37;1.20;;;1.10;;
1591;SDS011;789;51.612;7.510;2023-07-20T14:22:04;1.10;;;0.80;;
1591;SDS011;789;51.612;7.510;2023-07-20T14:24:31;2.00;;;1.07;;
1591;SDS011;789;51.612;7.510;2023-07-20T14:26:59;1.00;;;0.90;;
1591;SDS011;789;51.612;7.510;2023-07-20T14:29:26;2.90;;;1.03;;
1591;SDS011;789;51.612;7.510;2023-07-20T14:31:56;1.60;;;1.10;;
1591;SDS011;789;51.612;7.510;2023-07-20T14:34:23;1.10;;;0.87;;
1591;SDS011;789;51.612;7.510;2023-07-20T14:36:50;1.13;;;0.93;;
1591;SDS011;789;51.612;7.510;2023-07-20T14:39:17;3.73;;;1.10;;
1591;SDS011;789;51.612;7.510;2023-07-20T14:41:44;2.83;;;1.10;;
1591;SDS011;789;51.612;7.510;2023-07-20T14:44:12;2.07;;;1.00;;
1591;SDS011;789;51.612;7.510;2023-07-20T14:46:39;3.17;;;1.00;;
1591;SDS011;789;51.612;7.510;2023-07-20T14:49:06;1.30;;;1.00;;
1591;SDS011;789;51.612;7.510;2023-07-20T14:51:32;1.30;;;1.17;;
1591;SDS011;789;51.612;7.510;2023-07-20T14:54:01;1.00;;;0.80;;
1591;SDS011;789;51.612;7.510;2023-07-20T14:56:28;2.20;;;1.20;;
1591;SDS011;789;51.612;7.510;2023-07-20T14:58:54;1.10;;;1.00;;
1591;SDS011;789;51.612;7.510;2023-07-20T15:01:24;1.40;;;1.23;;
1591;SDS011;789;51.612;7.510;2023-07-20T15:03:51;1.93;;;1.10;;
1591;SDS011;789;51.612;7.510;2023-07-20T15:06:18;1.13;;;1.00;;
1591;SDS011;789;51.612;7.510;2023-07-20T15:08:45;2.37;;;1.13;;
1591;SDS011;789;51.612;7.510;2023-07-20T15:11:12;1.30;;;0.90;;
1591;SDS011;789;51.612;7.510;2023-07-20T15:13:39;1.83;;;0.90;;
1591;SDS011;789;51.612;7.510;2023-07-20T15:16:07;3.07;;;1.23;;
1591;SDS011;789;51.612;7.510;2023-07-20T15:18:36;1.60;;;1.20;;
1591;SDS011;789;51.612;7.510;2023-07-20T15:21:03;1.67;;;1.50;;
1591;SDS011;789;51.612;7.510;2023-07-20T15:23:30;2.30;;;1.10;;
1591;SDS011;789;51.612;7.510;2023-07-20T15:25:56;3.73;;;1.40;;
1591;SDS011;789;51.612;7.510;2023-07-20T15:28:23;1.47;;;1.20;;
1591;SDS011;789;51.612;7.510;2023-07-20T15:30:50;1.30;;;1.20;;
1591;SDS011;789;51.612;7.510;2023-07-20T15:33:25;5.67;;;1.50;;
1591;SDS011;789;51.612;7.510;2023-07-20T15:35:53;2.60;;;1.30;;